createdAt,value
2017-12-16T00:01:07.994Z,0
2017-12-16T00:02:17.713Z,0
2017-12-16T00:03:27.425Z,0
2017-12-16T00:04:37.412Z,0
2017-12-16T00:05:47.449Z,0
2017-12-16T00:06:57.427Z,0
2017-12-16T00:08:07.407Z,0
2017-12-16T00:09:17.385Z,0
2017-12-16T00:10:26.839Z,0
2017-12-16T00:11:36.555Z,0
2017-12-16T00:12:46.271Z,0
2017-12-16T00:13:56.247Z,0
2017-12-16T00:15:06.251Z,0
2017-12-16T00:16:15.985Z,0
2017-12-16T00:17:25.970Z,0
2017-12-16T00:18:35.973Z,0
2017-12-16T00:19:45.952Z,0
2017-12-16T00:20:55.933Z,0
2017-12-16T00:22:05.456Z,0
2017-12-16T00:23:15.435Z,0
2017-12-16T00:24:25.415Z,0
2017-12-16T00:25:35.399Z,0
2017-12-16T00:26:45.377Z,0
2017-12-16T00:27:55.361Z,0
2017-12-16T00:29:05.340Z,0
2017-12-16T00:30:15.061Z,0
2017-12-16T00:31:25.038Z,0
2017-12-16T00:32:34.763Z,0
2017-12-16T00:33:44.740Z,0
2017-12-16T00:34:54.728Z,0
2017-12-16T00:36:04.718Z,0
2017-12-16T00:37:14.435Z,0
2017-12-16T00:38:24.426Z,0
2017-12-16T00:39:34.158Z,0
2017-12-16T00:40:44.143Z,0
2017-12-16T00:41:54.120Z,0
2017-12-16T00:43:04.105Z,0
2017-12-16T00:44:13.817Z,0
2017-12-16T00:45:23.529Z,0
2017-12-16T00:46:33.244Z,0
2017-12-16T00:47:43.231Z,0
2017-12-16T00:48:55.213Z,0
2017-12-16T00:50:05.193Z,0
2017-12-16T00:51:15.171Z,0
2017-12-16T00:52:25.151Z,0
2017-12-16T00:53:35.125Z,0
2017-12-16T00:54:45.113Z,0
2017-12-16T00:55:55.092Z,0
2017-12-16T00:57:05.075Z,0
2017-12-16T00:58:15.050Z,0
2017-12-16T00:59:25.032Z,0
2017-12-16T01:00:34.479Z,0
2017-12-16T01:01:44.460Z,0
2017-12-16T01:02:54.443Z,0
2017-12-16T01:04:04.422Z,0
2017-12-16T01:05:14.407Z,0
2017-12-16T01:06:24.122Z,0
2017-12-16T01:07:33.840Z,0
2017-12-16T01:08:43.555Z,0
2017-12-16T01:09:53.533Z,0
2017-12-16T01:11:03.520Z,0
2017-12-16T01:12:13.497Z,0
2017-12-16T01:13:23.214Z,0
2017-12-16T01:14:33.197Z,0
2017-12-16T01:15:43.180Z,0
2017-12-16T01:16:52.898Z,0
2017-12-16T01:18:02.620Z,0
2017-12-16T01:19:12.603Z,0
2017-12-16T01:20:22.589Z,0
2017-12-16T01:21:32.301Z,0
2017-12-16T01:22:42.284Z,0
2017-12-16T01:23:54.000Z,0
2017-12-16T01:25:03.718Z,0
2017-12-16T01:26:13.700Z,0
2017-12-16T01:27:23.682Z,0
2017-12-16T01:28:33.654Z,0
2017-12-16T01:29:43.650Z,0
2017-12-16T01:30:53.363Z,0
2017-12-16T01:32:03.346Z,0
2017-12-16T01:33:13.327Z,0
2017-12-16T01:34:23.308Z,0
2017-12-16T01:35:33.301Z,0
2017-12-16T01:36:43.012Z,0
2017-12-16T01:37:52.989Z,0
2017-12-16T01:39:02.969Z,0
2017-12-16T01:40:12.955Z,0
2017-12-16T01:41:22.665Z,0
2017-12-16T01:42:32.382Z,0
2017-12-16T01:43:42.367Z,0
2017-12-16T01:44:52.350Z,0
2017-12-16T01:46:02.337Z,0
2017-12-16T01:47:12.315Z,0
2017-12-16T01:48:22.026Z,0
2017-12-16T01:49:32.005Z,0
2017-12-16T01:50:41.985Z,0
2017-12-16T01:51:51.972Z,0
2017-12-16T01:53:01.699Z,0
2017-12-16T01:54:11.678Z,0
2017-12-16T01:55:21.404Z,0
2017-12-16T01:56:31.382Z,0
2017-12-16T01:57:41.363Z,0
2017-12-16T01:58:51.366Z,0
2017-12-16T02:00:01.407Z,0
2017-12-16T02:01:11.390Z,0
2017-12-16T02:02:21.371Z,0
2017-12-16T02:03:31.358Z,0
2017-12-16T02:04:41.335Z,0
2017-12-16T02:05:51.314Z,0
2017-12-16T02:07:01.294Z,0
2017-12-16T02:08:11.272Z,0
2017-12-16T02:09:21.256Z,0
2017-12-16T02:10:31.236Z,0
2017-12-16T02:11:41.224Z,0
2017-12-16T02:12:51.209Z,0
2017-12-16T02:14:01.204Z,0
2017-12-16T02:15:11.186Z,0
2017-12-16T02:16:21.169Z,0
2017-12-16T02:17:30.886Z,0
2017-12-16T02:18:40.864Z,0
2017-12-16T02:19:50.844Z,0
2017-12-16T02:21:00.557Z,0
2017-12-16T02:22:10.539Z,0
2017-12-16T02:23:20.516Z,0
2017-12-16T02:24:30.229Z,0
2017-12-16T02:25:39.942Z,0
2017-12-16T02:26:49.917Z,0
2017-12-16T02:27:59.894Z,0
2017-12-16T02:29:09.873Z,0
2017-12-16T02:30:19.855Z,0
2017-12-16T02:31:29.842Z,0
2017-12-16T02:32:39.826Z,0
2017-12-16T02:33:49.817Z,0
2017-12-16T02:34:59.806Z,0
2017-12-16T02:36:09.274Z,0
2017-12-16T02:37:19.260Z,0
2017-12-16T02:38:29.239Z,0
2017-12-16T02:39:39.234Z,0
2017-12-16T02:40:49.223Z,0
2017-12-16T02:41:59.210Z,0
2017-12-16T02:43:09.206Z,0
2017-12-16T02:44:18.919Z,0
2017-12-16T02:45:28.909Z,0
2017-12-16T02:46:38.899Z,0
2017-12-16T02:47:48.885Z,0
2017-12-16T02:48:58.869Z,0
2017-12-16T02:50:08.856Z,0
2017-12-16T02:51:18.856Z,0
2017-12-16T02:52:28.572Z,0
2017-12-16T02:53:38.563Z,0
2017-12-16T02:54:48.285Z,0
2017-12-16T02:55:58.269Z,0
2017-12-16T02:57:08.251Z,0
2017-12-16T02:58:18.245Z,0
2017-12-16T02:59:28.225Z,0
2017-12-16T03:00:38.210Z,0
2017-12-16T03:01:48.190Z,0
2017-12-16T03:02:58.166Z,0
2017-12-16T03:04:08.156Z,0
2017-12-16T03:05:18.140Z,0
2017-12-16T03:06:28.115Z,0
2017-12-16T03:07:37.830Z,0
2017-12-16T03:08:47.806Z,0
2017-12-16T03:09:57.834Z,0
2017-12-16T03:11:07.830Z,0
2017-12-16T03:12:17.808Z,0
2017-12-16T03:13:27.792Z,0
2017-12-16T03:14:37.776Z,0
2017-12-16T03:15:47.488Z,0
2017-12-16T03:16:57.465Z,0
2017-12-16T03:18:07.440Z,0
2017-12-16T03:19:17.153Z,0
2017-12-16T03:20:27.189Z,0
2017-12-16T03:21:36.906Z,0
2017-12-16T03:22:46.887Z,0
2017-12-16T03:23:56.869Z,0
2017-12-16T03:25:06.847Z,0
2017-12-16T03:26:16.826Z,0
2017-12-16T03:27:26.815Z,0
2017-12-16T03:28:36.793Z,0
2017-12-16T03:29:46.804Z,0
2017-12-16T03:30:56.802Z,0
2017-12-16T03:32:06.522Z,0
2017-12-16T03:33:16.234Z,0
2017-12-16T03:34:26.224Z,0
2017-12-16T03:35:36.203Z,0
2017-12-16T03:36:45.920Z,0
2017-12-16T03:37:55.904Z,0
2017-12-16T03:39:05.897Z,0
2017-12-16T03:40:15.875Z,0
2017-12-16T03:41:25.852Z,0
2017-12-16T03:42:35.563Z,0
2017-12-16T03:43:45.548Z,0
2017-12-16T03:44:55.533Z,0
2017-12-16T03:46:05.246Z,0
2017-12-16T03:47:14.959Z,0
2017-12-16T03:48:24.941Z,0
2017-12-16T03:49:35.220Z,0
2017-12-16T03:50:45.200Z,0
2017-12-16T03:51:55.230Z,0
2017-12-16T03:53:05.211Z,0
2017-12-16T03:54:15.190Z,0
2017-12-16T03:55:25.169Z,0
2017-12-16T03:56:35.152Z,0
2017-12-16T03:57:45.135Z,0
2017-12-16T03:58:55.128Z,0
2017-12-16T04:00:04.841Z,0
2017-12-16T04:03:47.119Z,0
2017-12-16T04:04:57.096Z,0
2017-12-16T04:06:07.073Z,0
2017-12-16T04:07:16.791Z,0
2017-12-16T04:08:26.768Z,0
2017-12-16T04:09:36.746Z,0
2017-12-16T04:10:46.788Z,0
2017-12-16T04:11:56.499Z,0
2017-12-16T04:13:06.478Z,0
2017-12-16T04:14:16.190Z,0
2017-12-16T04:15:26.172Z,0
2017-12-16T04:16:36.207Z,0
2017-12-16T04:17:45.862Z,0
2017-12-16T04:18:55.849Z,0
2017-12-16T04:20:05.843Z,0
2017-12-16T04:21:15.818Z,0
2017-12-16T04:22:25.831Z,0
2017-12-16T04:23:35.014Z,0
2017-12-16T04:24:44.733Z,0
2017-12-16T04:25:54.707Z,0
2017-12-16T04:27:04.701Z,0
2017-12-16T04:28:14.679Z,0
2017-12-16T04:29:24.664Z,0
2017-12-16T04:30:34.641Z,0
2017-12-16T04:31:44.352Z,0
2017-12-16T04:32:54.330Z,0
2017-12-16T04:34:04.306Z,0
2017-12-16T04:35:14.281Z,0
2017-12-16T04:36:24.258Z,0
2017-12-16T04:37:34.232Z,0
2017-12-16T04:38:44.211Z,0
2017-12-16T04:39:54.196Z,0
2017-12-16T04:41:04.184Z,0
2017-12-16T04:42:14.167Z,0
2017-12-16T04:43:23.881Z,0
2017-12-16T04:44:33.611Z,0
2017-12-16T04:45:43.591Z,0
2017-12-16T04:46:53.578Z,0
2017-12-16T04:48:03.556Z,0
2017-12-16T04:49:13.542Z,0
2017-12-16T04:50:23.520Z,0
2017-12-16T04:51:33.496Z,0
2017-12-16T04:52:43.478Z,0
2017-12-16T04:53:53.197Z,0
2017-12-16T04:55:03.175Z,0
2017-12-16T04:56:13.163Z,0
2017-12-16T04:57:23.143Z,0
2017-12-16T04:58:33.175Z,0
2017-12-16T04:59:43.154Z,0
2017-12-16T05:00:52.866Z,0
2017-12-16T05:02:02.585Z,0
2017-12-16T05:03:12.563Z,0
2017-12-16T05:04:22.331Z,0
2017-12-16T05:05:32.310Z,0
2017-12-16T05:06:42.291Z,0
2017-12-16T05:07:52.278Z,0
2017-12-16T05:09:02.256Z,0
2017-12-16T05:10:12.231Z,0
2017-12-16T05:11:22.259Z,0
2017-12-16T05:12:32.240Z,0
2017-12-16T05:13:42.222Z,0
2017-12-16T05:14:52.204Z,0
2017-12-16T05:16:02.178Z,0
2017-12-16T05:17:11.891Z,0
2017-12-16T05:18:21.870Z,0
2017-12-16T05:19:31.847Z,0
2017-12-16T05:20:41.561Z,0
2017-12-16T05:21:51.539Z,0
2017-12-16T05:23:01.519Z,0
2017-12-16T05:24:11.237Z,0
2017-12-16T05:25:21.217Z,0
2017-12-16T05:26:31.196Z,0
2017-12-16T05:27:41.175Z,0
2017-12-16T05:28:51.212Z,0
2017-12-16T05:30:01.202Z,0
2017-12-16T05:31:11.181Z,0
2017-12-16T05:32:21.175Z,0
2017-12-16T05:33:31.152Z,0
2017-12-16T05:34:41.131Z,0
2017-12-16T05:35:50.844Z,0
2017-12-16T05:37:00.824Z,0
2017-12-16T05:38:10.803Z,0
2017-12-16T05:39:20.536Z,0
2017-12-16T05:40:30.255Z,0
2017-12-16T05:41:40.236Z,0
2017-12-16T05:42:49.953Z,0
2017-12-16T05:43:59.935Z,0
2017-12-16T05:45:09.968Z,0
2017-12-16T05:46:19.945Z,0
2017-12-16T05:47:29.924Z,0
2017-12-16T05:48:39.900Z,0
2017-12-16T05:49:49.936Z,0
2017-12-16T05:50:59.649Z,0
2017-12-16T05:52:09.366Z,0
2017-12-16T05:53:19.086Z,0
2017-12-16T05:54:29.070Z,0
2017-12-16T05:55:39.056Z,0
2017-12-16T05:56:49.052Z,0
2017-12-16T05:57:59.033Z,0
2017-12-16T05:59:09.011Z,0
2017-12-16T06:00:18.820Z,0
2017-12-16T06:01:28.804Z,0
2017-12-16T06:02:38.783Z,0
2017-12-16T06:03:48.762Z,0
2017-12-16T06:04:58.746Z,0
2017-12-16T06:06:08.459Z,0
2017-12-16T06:07:18.440Z,0
2017-12-16T06:08:28.423Z,0
2017-12-16T06:09:38.399Z,0
2017-12-16T06:10:48.382Z,0
2017-12-16T06:11:58.359Z,0
2017-12-16T06:13:08.342Z,0
2017-12-16T06:14:18.319Z,0
2017-12-16T06:15:28.297Z,0
2017-12-16T06:16:38.275Z,0
2017-12-16T06:17:50.417Z,0
2017-12-16T06:19:00.400Z,0
2017-12-16T06:20:09.847Z,0
2017-12-16T06:21:19.845Z,0
2017-12-16T06:22:29.560Z,0
2017-12-16T06:23:39.274Z,0
2017-12-16T06:24:49.251Z,0
2017-12-16T06:25:58.961Z,0
2017-12-16T06:27:08.678Z,0
2017-12-16T06:28:18.659Z,0
2017-12-16T06:29:28.646Z,0
2017-12-16T06:30:38.635Z,0
2017-12-16T06:31:48.619Z,0
2017-12-16T06:32:58.597Z,0
2017-12-16T06:34:08.317Z,0
2017-12-16T06:35:18.296Z,0
2017-12-16T06:36:28.279Z,0
2017-12-16T06:37:38.262Z,0
2017-12-16T06:38:48.250Z,0
2017-12-16T06:39:57.958Z,0
2017-12-16T06:41:07.936Z,0
2017-12-16T06:42:17.911Z,0
2017-12-16T06:43:27.624Z,0
2017-12-16T06:44:37.601Z,0
2017-12-16T06:45:47.311Z,0
2017-12-16T06:46:57.295Z,0
2017-12-16T06:48:07.279Z,0
2017-12-16T06:49:17.265Z,0
2017-12-16T06:50:27.243Z,0
2017-12-16T06:51:36.955Z,0
2017-12-16T06:52:46.932Z,0
2017-12-16T06:53:56.909Z,0
2017-12-16T06:55:06.890Z,0
2017-12-16T06:56:16.868Z,0
2017-12-16T06:57:26.845Z,0
2017-12-16T06:58:36.829Z,0
2017-12-16T06:59:46.810Z,0
2017-12-16T07:00:56.784Z,0
2017-12-16T07:02:06.766Z,0
2017-12-16T07:03:16.748Z,0
2017-12-16T07:04:26.732Z,0
2017-12-16T07:05:36.718Z,0
2017-12-16T07:06:46.693Z,0
2017-12-16T07:07:56.673Z,0
2017-12-16T07:09:06.655Z,0
2017-12-16T07:10:16.372Z,0
2017-12-16T07:11:26.359Z,0
2017-12-16T07:12:36.073Z,0
2017-12-16T07:13:45.788Z,0
2017-12-16T07:14:55.850Z,0
2017-12-16T07:16:05.829Z,0
2017-12-16T07:17:15.537Z,0
2017-12-16T07:18:25.252Z,0
2017-12-16T07:19:34.969Z,0
2017-12-16T07:20:44.952Z,0
2017-12-16T07:21:54.938Z,0
2017-12-16T07:23:04.927Z,0
2017-12-16T07:24:14.903Z,0
2017-12-16T07:25:24.617Z,0
2017-12-16T07:26:34.593Z,0
2017-12-16T07:27:44.587Z,0
2017-12-16T07:28:54.568Z,0
2017-12-16T07:30:04.548Z,0
2017-12-16T07:31:14.264Z,4
2017-12-16T07:32:24.247Z,4
2017-12-16T07:33:33.964Z,4
2017-12-16T07:34:43.942Z,4
2017-12-16T07:35:53.653Z,0
2017-12-16T07:37:03.639Z,4
2017-12-16T07:38:13.620Z,4
2017-12-16T07:39:23.597Z,4
2017-12-16T07:40:33.321Z,8
2017-12-16T07:41:43.302Z,4
2017-12-16T07:42:53.280Z,8
2017-12-16T07:44:03.295Z,8
2017-12-16T07:45:13.057Z,8
2017-12-16T07:46:22.773Z,12
2017-12-16T07:47:32.764Z,12
2017-12-16T07:48:42.479Z,8
2017-12-16T07:49:52.193Z,16
2017-12-16T07:51:01.904Z,16
2017-12-16T07:52:11.632Z,16
2017-12-16T07:53:21.617Z,20
2017-12-16T07:54:31.602Z,20
2017-12-16T07:55:41.583Z,20
2017-12-16T07:56:51.296Z,24
2017-12-16T07:58:01.279Z,28
2017-12-16T07:59:11.271Z,28
2017-12-16T08:00:21.293Z,32
2017-12-16T08:01:31.286Z,36
2017-12-16T08:02:40.999Z,40
2017-12-16T08:03:50.977Z,44
2017-12-16T08:05:00.440Z,48
2017-12-16T08:06:10.420Z,52
2017-12-16T08:07:20.401Z,60
2017-12-16T08:08:30.385Z,64
2017-12-16T08:09:40.363Z,68
2017-12-16T08:10:50.344Z,76
2017-12-16T08:12:00.324Z,84
2017-12-16T08:13:10.349Z,92
2017-12-16T08:14:20.329Z,100
2017-12-16T08:15:30.313Z,104
2017-12-16T08:16:40.030Z,116
2017-12-16T08:17:50.014Z,124
2017-12-16T08:18:59.992Z,140
2017-12-16T08:20:09.442Z,148
2017-12-16T08:21:19.439Z,160
2017-12-16T08:22:28.897Z,176
2017-12-16T08:23:38.879Z,188
2017-12-16T08:24:48.591Z,200
2017-12-16T08:25:58.578Z,216
2017-12-16T08:27:08.556Z,228
2017-12-16T08:28:18.276Z,244
2017-12-16T08:29:28.253Z,256
2017-12-16T08:30:38.234Z,272
2017-12-16T08:31:47.684Z,284
2017-12-16T08:32:57.742Z,292
2017-12-16T08:34:07.724Z,296
2017-12-16T08:35:17.709Z,304
2017-12-16T08:36:27.420Z,316
2017-12-16T08:37:37.418Z,328
2017-12-16T08:38:47.463Z,336
2017-12-16T08:39:57.457Z,364
2017-12-16T08:41:07.439Z,404
2017-12-16T08:42:17.424Z,440
2017-12-16T08:43:27.142Z,480
2017-12-16T08:44:37.132Z,508
2017-12-16T08:45:47.111Z,524
2017-12-16T08:46:57.092Z,536
2017-12-16T08:48:07.071Z,540
2017-12-16T08:49:17.064Z,524
2017-12-16T08:50:27.048Z,508
2017-12-16T08:51:37.028Z,512
2017-12-16T08:52:47.010Z,508
2017-12-16T08:53:56.729Z,492
2017-12-16T08:55:06.708Z,480
2017-12-16T08:56:16.695Z,484
2017-12-16T08:57:26.674Z,508
2017-12-16T08:58:36.666Z,556
2017-12-16T08:59:46.380Z,596
2017-12-16T09:00:56.100Z,620
2017-12-16T09:02:06.075Z,624
2017-12-16T09:03:15.788Z,612
2017-12-16T09:04:25.765Z,620
2017-12-16T09:05:35.759Z,644
2017-12-16T09:06:45.765Z,664
2017-12-16T09:07:55.476Z,688
2017-12-16T09:09:05.190Z,720
2017-12-16T09:10:15.171Z,736
2017-12-16T09:11:25.150Z,752
2017-12-16T09:12:35.133Z,756
2017-12-16T09:13:45.125Z,744
2017-12-16T09:14:55.103Z,724
2017-12-16T09:16:05.081Z,692
2017-12-16T09:17:15.069Z,660
2017-12-16T09:18:24.781Z,632
2017-12-16T09:19:34.767Z,608
2017-12-16T09:20:44.743Z,596
2017-12-16T09:21:54.720Z,596
2017-12-16T09:23:04.433Z,600
2017-12-16T09:24:14.422Z,604
2017-12-16T09:25:24.405Z,604
2017-12-16T09:26:34.389Z,620
2017-12-16T09:27:44.374Z,648
2017-12-16T09:28:54.354Z,668
2017-12-16T09:30:04.392Z,680
2017-12-16T09:31:14.370Z,676
2017-12-16T09:32:24.344Z,688
2017-12-16T09:33:34.059Z,720
2017-12-16T09:34:44.042Z,752
2017-12-16T09:35:54.028Z,772
2017-12-16T09:37:04.011Z,804
2017-12-16T09:38:13.997Z,824
2017-12-16T09:39:23.975Z,828
2017-12-16T09:40:33.697Z,816
2017-12-16T09:41:43.675Z,812
2017-12-16T09:42:53.405Z,768
2017-12-16T09:44:03.387Z,748
2017-12-16T09:45:13.108Z,736
2017-12-16T09:46:23.085Z,704
2017-12-16T09:47:35.064Z,684
2017-12-16T09:48:44.790Z,668
2017-12-16T09:49:54.777Z,664
2017-12-16T09:51:04.756Z,664
2017-12-16T09:52:14.753Z,668
2017-12-16T09:53:24.473Z,696
2017-12-16T09:54:34.452Z,716
2017-12-16T09:55:44.440Z,732
2017-12-16T09:56:54.429Z,756
2017-12-16T09:58:04.180Z,792
2017-12-16T09:59:16.170Z,824
2017-12-16T10:00:26.151Z,864
2017-12-16T10:01:36.143Z,900
2017-12-16T10:02:45.861Z,932
2017-12-16T10:03:55.855Z,968
2017-12-16T10:05:05.894Z,992
2017-12-16T10:06:15.872Z,1012
2017-12-16T10:07:25.321Z,1024
2017-12-16T10:08:35.308Z,1044
2017-12-16T10:09:45.025Z,1072
2017-12-16T10:10:54.742Z,1100
2017-12-16T10:12:04.462Z,1104
2017-12-16T10:13:14.440Z,1104
2017-12-16T10:14:24.420Z,1104
2017-12-16T10:15:34.134Z,1104
2017-12-16T10:16:43.851Z,1104
2017-12-16T10:17:53.561Z,1112
2017-12-16T10:19:03.541Z,1124
2017-12-16T10:20:13.603Z,1132
2017-12-16T10:21:23.321Z,1144
2017-12-16T10:22:33.308Z,1164
2017-12-16T10:23:43.286Z,1176
2017-12-16T10:24:53.270Z,1188
2017-12-16T10:26:02.985Z,1200
2017-12-16T10:27:12.961Z,1212
2017-12-16T10:28:22.943Z,1224
2017-12-16T10:29:32.927Z,1236
2017-12-16T10:30:42.374Z,1244
2017-12-16T10:31:52.353Z,1256
2017-12-16T10:33:02.334Z,1272
2017-12-16T10:34:12.346Z,1288
2017-12-16T10:35:21.806Z,1316
2017-12-16T10:36:31.850Z,1348
2017-12-16T10:37:41.844Z,1384
2017-12-16T10:38:51.821Z,1440
2017-12-16T10:40:01.799Z,1500
2017-12-16T10:41:11.519Z,1544
2017-12-16T10:42:20.968Z,1580
2017-12-16T10:43:31.021Z,1604
2017-12-16T10:44:41.006Z,1628
2017-12-16T10:45:50.989Z,1652
2017-12-16T10:47:01.037Z,1668
2017-12-16T10:48:10.486Z,1696
2017-12-16T10:49:20.473Z,1716
2017-12-16T10:50:30.190Z,1732
2017-12-16T10:51:40.178Z,1748
2017-12-16T10:52:50.161Z,1760
2017-12-16T10:54:00.141Z,1768
2017-12-16T10:55:09.861Z,1772
2017-12-16T10:56:19.593Z,1768
2017-12-16T10:57:29.312Z,1780
2017-12-16T10:58:39.291Z,1792
2017-12-16T10:59:49.269Z,1812
2017-12-16T11:00:59.248Z,1832
2017-12-16T11:02:08.965Z,1856
2017-12-16T11:03:18.680Z,1872
2017-12-16T11:04:28.660Z,1876
2017-12-16T11:05:38.638Z,1884
2017-12-16T11:06:48.633Z,1916
2017-12-16T11:07:58.617Z,1960
2017-12-16T11:09:08.599Z,2000
2017-12-16T11:10:18.579Z,2048
2017-12-16T11:11:28.293Z,2096
2017-12-16T11:12:38.276Z,2148
2017-12-16T11:13:47.456Z,2196
2017-12-16T11:14:57.435Z,2256
2017-12-16T11:16:07.413Z,2304
2017-12-16T11:17:17.400Z,2348
2017-12-16T11:18:27.398Z,2392
2017-12-16T11:19:37.114Z,2420
2017-12-16T11:20:46.828Z,2440
2017-12-16T11:21:56.332Z,2464
2017-12-16T11:23:06.310Z,2520
2017-12-16T11:24:16.023Z,2556
2017-12-16T11:25:26.004Z,2584
2017-12-16T11:26:35.716Z,2608
2017-12-16T11:27:45.695Z,2620
2017-12-16T11:28:55.676Z,2620
2017-12-16T11:30:05.397Z,2628
2017-12-16T11:31:15.381Z,2640
2017-12-16T11:32:25.362Z,2656
2017-12-16T11:33:35.350Z,2636
2017-12-16T11:34:45.084Z,2632
2017-12-16T11:35:55.064Z,2628
2017-12-16T11:37:05.044Z,2640
2017-12-16T11:38:15.028Z,2700
2017-12-16T11:39:24.745Z,2772
2017-12-16T11:40:34.735Z,2820
2017-12-16T11:41:44.712Z,2824
2017-12-16T11:42:54.707Z,2804
2017-12-16T11:44:04.685Z,2776
2017-12-16T11:45:14.675Z,2732
2017-12-16T11:46:24.663Z,2672
2017-12-16T11:47:34.651Z,2608
2017-12-16T11:48:44.702Z,2556
2017-12-16T11:49:54.689Z,2532
2017-12-16T11:51:04.672Z,2520
2017-12-16T11:52:14.667Z,2520
2017-12-16T11:53:24.381Z,2528
2017-12-16T11:54:34.099Z,2540
2017-12-16T11:55:44.081Z,2560
2017-12-16T11:56:54.058Z,2604
2017-12-16T11:58:03.790Z,2684
2017-12-16T11:59:13.836Z,2780
2017-12-16T12:00:23.567Z,2848
2017-12-16T12:01:33.547Z,2900
2017-12-16T12:02:43.269Z,2920
2017-12-16T12:03:53.249Z,2932
2017-12-16T12:05:02.966Z,2940
2017-12-16T12:06:12.680Z,2952
2017-12-16T12:07:22.395Z,2968
2017-12-16T12:08:32.373Z,2956
2017-12-16T12:09:42.366Z,2936
2017-12-16T12:10:52.345Z,2932
2017-12-16T12:12:02.321Z,2940
2017-12-16T12:13:12.038Z,2928
2017-12-16T12:14:22.019Z,2880
2017-12-16T12:15:31.476Z,2828
2017-12-16T12:16:41.465Z,2760
2017-12-16T12:17:51.448Z,2676
2017-12-16T12:19:01.425Z,2564
2017-12-16T12:20:11.407Z,2448
2017-12-16T12:21:21.386Z,2328
2017-12-16T12:22:31.423Z,2224
2017-12-16T12:23:41.429Z,2128
2017-12-16T12:24:51.148Z,2064
2017-12-16T12:26:00.869Z,2016
2017-12-16T12:27:10.589Z,1984
2017-12-16T12:28:20.567Z,1940
2017-12-16T12:29:30.550Z,1928
2017-12-16T12:30:40.536Z,1972
2017-12-16T12:31:50.524Z,2008
2017-12-16T12:33:00.523Z,2064
2017-12-16T12:34:10.508Z,2128
2017-12-16T12:35:20.487Z,2152
2017-12-16T12:36:30.466Z,2116
2017-12-16T12:37:40.451Z,2084
2017-12-16T12:38:50.431Z,2076
2017-12-16T12:40:00.409Z,2060
2017-12-16T12:41:10.143Z,2080
2017-12-16T12:42:20.138Z,2140
2017-12-16T12:43:30.120Z,2216
2017-12-16T12:44:40.107Z,2276
2017-12-16T12:45:49.829Z,2316
2017-12-16T12:46:59.804Z,2348
2017-12-16T12:48:09.782Z,2360
2017-12-16T12:49:19.772Z,2348
2017-12-16T12:50:29.772Z,2292
2017-12-16T12:51:39.750Z,2208
2017-12-16T12:52:49.735Z,2128
2017-12-16T12:53:59.717Z,2052
2017-12-16T12:55:09.704Z,2004
2017-12-16T12:56:19.413Z,1984
2017-12-16T12:57:29.131Z,1980
2017-12-16T12:58:39.113Z,1976
2017-12-16T12:59:49.091Z,1956
2017-12-16T13:00:59.160Z,1924
2017-12-16T13:02:09.210Z,1884
2017-12-16T13:03:19.189Z,1832
2017-12-16T13:04:28.904Z,1772
2017-12-16T13:05:38.888Z,1728
2017-12-16T13:06:48.867Z,1660
2017-12-16T13:07:58.855Z,1584
2017-12-16T13:09:08.836Z,1524
2017-12-16T13:10:18.823Z,1484
2017-12-16T13:11:28.807Z,1440
2017-12-16T13:12:38.796Z,1400
2017-12-16T13:13:48.510Z,1364
2017-12-16T13:14:58.492Z,1340
2017-12-16T13:16:08.208Z,1328
2017-12-16T13:17:18.198Z,1312
2017-12-16T13:18:28.183Z,1300
2017-12-16T13:19:38.166Z,1284
2017-12-16T13:20:48.155Z,1268
2017-12-16T13:21:57.870Z,1252
2017-12-16T13:23:07.587Z,1236
2017-12-16T13:24:17.301Z,1216
2017-12-16T13:25:27.015Z,1192
2017-12-16T13:26:36.990Z,1172
2017-12-16T13:27:46.968Z,1148
2017-12-16T13:28:56.682Z,1124
2017-12-16T13:30:06.397Z,1096
2017-12-16T13:31:16.375Z,1068
2017-12-16T13:32:26.387Z,1040
2017-12-16T13:33:36.366Z,1012
2017-12-16T13:34:46.350Z,984
2017-12-16T13:35:56.337Z,960
2017-12-16T13:37:06.319Z,936
2017-12-16T13:38:16.309Z,908
2017-12-16T13:39:26.289Z,884
2017-12-16T13:40:36.311Z,860
2017-12-16T13:41:46.297Z,832
2017-12-16T13:42:56.010Z,808
2017-12-16T13:44:05.730Z,780
2017-12-16T13:45:15.182Z,756
2017-12-16T13:46:25.161Z,732
2017-12-16T13:47:35.141Z,708
2017-12-16T13:48:45.257Z,680
2017-12-16T13:49:55.243Z,660
2017-12-16T13:51:04.957Z,636
2017-12-16T13:52:14.936Z,608
2017-12-16T13:53:24.917Z,584
2017-12-16T13:54:34.897Z,560
2017-12-16T13:55:44.878Z,536
2017-12-16T13:56:54.853Z,512
2017-12-16T13:58:04.566Z,488
2017-12-16T13:59:14.558Z,464
2017-12-16T14:00:24.271Z,440
2017-12-16T14:01:33.986Z,416
2017-12-16T14:02:43.963Z,392
2017-12-16T14:03:53.676Z,376
2017-12-16T14:05:03.669Z,356
2017-12-16T14:06:12.847Z,332
2017-12-16T14:07:22.827Z,312
2017-12-16T14:08:32.011Z,292
2017-12-16T14:09:42.002Z,276
2017-12-16T14:10:51.721Z,256
2017-12-16T14:12:01.435Z,240
2017-12-16T14:13:11.412Z,224
2017-12-16T14:14:21.391Z,208
2017-12-16T14:15:31.430Z,196
2017-12-16T14:16:41.406Z,180
2017-12-16T14:17:51.450Z,168
2017-12-16T14:19:01.162Z,152
2017-12-16T14:20:11.146Z,140
2017-12-16T14:21:20.858Z,128
2017-12-16T14:22:30.928Z,120
2017-12-16T14:23:40.918Z,108
2017-12-16T14:24:50.376Z,100
2017-12-16T14:26:00.086Z,92
2017-12-16T14:27:10.070Z,84
2017-12-16T14:28:19.779Z,72
2017-12-16T14:29:29.497Z,68
2017-12-16T14:30:39.210Z,64
2017-12-16T14:31:49.192Z,56
2017-12-16T14:32:59.172Z,48
2017-12-16T14:34:08.889Z,44
2017-12-16T14:35:18.960Z,40
2017-12-16T14:36:28.941Z,36
2017-12-16T14:37:38.921Z,32
2017-12-16T14:38:48.901Z,28
2017-12-16T14:39:58.884Z,20
2017-12-16T14:41:08.610Z,24
2017-12-16T14:42:18.593Z,20
2017-12-16T14:43:28.315Z,16
2017-12-16T14:44:38.294Z,16
2017-12-16T14:45:48.270Z,12
2017-12-16T14:46:58.260Z,8
2017-12-16T14:48:08.287Z,12
2017-12-16T14:49:18.270Z,8
2017-12-16T14:50:27.717Z,8
2017-12-16T14:51:37.699Z,8
2017-12-16T14:52:47.679Z,8
2017-12-16T14:53:57.657Z,8
2017-12-16T14:55:07.656Z,4
2017-12-16T14:56:17.163Z,4
2017-12-16T14:57:27.143Z,4
2017-12-16T14:58:36.589Z,4
2017-12-16T14:59:46.569Z,4
2017-12-16T15:00:56.281Z,4
2017-12-16T15:02:06.264Z,4
2017-12-16T15:03:16.243Z,0
2017-12-16T15:04:26.228Z,0
2017-12-16T15:05:36.216Z,4
2017-12-16T15:06:46.193Z,4
2017-12-16T15:07:56.188Z,4
2017-12-16T15:09:06.170Z,0
2017-12-16T15:10:15.887Z,0
2017-12-16T15:11:25.873Z,0
2017-12-16T15:12:35.331Z,0
2017-12-16T15:13:47.315Z,0
2017-12-16T15:14:56.771Z,0
2017-12-16T15:16:06.754Z,0
2017-12-16T15:17:16.730Z,0
2017-12-16T15:18:26.714Z,0
2017-12-16T15:19:36.431Z,0
2017-12-16T15:20:46.408Z,0
2017-12-16T15:21:56.390Z,0
2017-12-16T15:23:06.365Z,0
2017-12-16T15:24:16.340Z,0
2017-12-16T15:25:26.317Z,0
2017-12-16T15:26:36.302Z,0
2017-12-16T15:27:46.019Z,0
2017-12-16T15:28:55.995Z,0
2017-12-16T15:30:05.985Z,0
2017-12-16T15:31:15.704Z,0
2017-12-16T15:32:25.752Z,0
2017-12-16T15:33:35.732Z,0
2017-12-16T15:34:45.446Z,0
2017-12-16T15:35:54.890Z,0
2017-12-16T15:37:05.167Z,0
2017-12-16T15:38:14.617Z,0
2017-12-16T15:39:24.597Z,0
2017-12-16T15:40:34.046Z,0
2017-12-16T15:41:44.031Z,0
2017-12-16T15:42:53.740Z,0
2017-12-16T15:44:03.458Z,0
2017-12-16T15:45:13.172Z,0
2017-12-16T15:46:22.893Z,0
2017-12-16T15:47:32.876Z,0
2017-12-16T15:48:42.926Z,0
2017-12-16T15:49:52.903Z,0
2017-12-16T15:51:02.884Z,0
2017-12-16T15:52:12.921Z,0
2017-12-16T15:53:22.915Z,0
2017-12-16T15:54:32.895Z,0
2017-12-16T15:55:42.875Z,0
2017-12-16T15:56:52.853Z,0
2017-12-16T15:58:02.839Z,0
2017-12-16T15:59:12.548Z,0
2017-12-16T16:00:22.260Z,0
2017-12-16T16:01:32.240Z,0
2017-12-16T16:02:42.220Z,0
2017-12-16T16:03:52.205Z,0
2017-12-16T16:05:01.918Z,0
2017-12-16T16:06:11.896Z,0
2017-12-16T16:07:21.079Z,0
2017-12-16T16:08:31.065Z,0
2017-12-16T16:09:41.091Z,0
2017-12-16T16:10:51.069Z,0
2017-12-16T16:12:01.051Z,0
2017-12-16T16:13:11.031Z,0
2017-12-16T16:14:21.017Z,0
2017-12-16T16:15:31.002Z,0
2017-12-16T16:16:40.984Z,0
2017-12-16T16:17:50.963Z,0
2017-12-16T16:19:00.948Z,0
2017-12-16T16:20:10.935Z,0
2017-12-16T16:21:20.919Z,0
2017-12-16T16:22:30.630Z,0
2017-12-16T16:23:40.350Z,0
2017-12-16T16:24:50.066Z,0
2017-12-16T16:26:00.045Z,0
2017-12-16T16:27:09.757Z,0
2017-12-16T16:28:19.732Z,0
2017-12-16T16:29:29.713Z,0
2017-12-16T16:30:39.690Z,0
2017-12-16T16:31:49.672Z,0
2017-12-16T16:32:59.656Z,0
2017-12-16T16:34:09.633Z,0
2017-12-16T16:35:19.617Z,0
2017-12-16T16:36:29.593Z,0
2017-12-16T16:37:39.580Z,0
2017-12-16T16:38:49.555Z,0
2017-12-16T16:39:59.562Z,0